Time;durP1;ratioP1;P1;durP2;ratioP2;P2;SDS_P1;SDS_P2;PMS_P1;PMS_P2;Temp;Humidity;BMP_temperature;BMP_pressure;BME280_temperature;BME280_humidity;BME280_pressure;Samples;Min_cycle;Max_cycle;Signal;HPM_P1;HPM_P2
2023/02/20 00:02:57;;;;;;;20.00;12.90;;;;;;;0.29;87.05;99425.25;221816;1276;22585;-73
2023/02/20 00:08:00;;;;;;;22.00;12.80;;;;;;;0.31;87.22;99419.74;221759;1269;22588;-73
2023/02/20 00:13:05;;;;;;;23.20;14.20;;;;;;;0.33;87.26;99413.91;221562;1276;22553;-74
2023/02/20 00:18:07;;;;;;;19.40;11.70;;;;;;;0.33;86.98;99404.02;221914;1276;25290;-72
2023/02/20 00:23:10;;;;;;;22.10;13.70;;;;;;;0.33;87.09;99405.37;221815;1272;26247;-73
2023/02/20 00:28:12;;;;;;;26.80;14.50;;;;;;;0.33;86.82;99411.09;221845;1276;22866;-73
2023/02/20 00:33:14;;;;;;;20.10;11.10;;;;;;;0.36;87.17;99417.30;221862;1272;24715;-74
2023/02/20 00:38:18;;;;;;;22.20;10.70;;;;;;;0.39;87.29;99418.34;221696;1274;22580;-74
2023/02/20 00:43:21;;;;;;;22.00;10.90;;;;;;;0.42;87.15;99419.69;221939;1275;22537;-73
2023/02/20 00:48:28;;;;;;;20.80;10.80;;;;;;;0.45;86.87;99422.60;221950;1276;22537;-72
2023/02/20 00:53:51;;;;;;;20.20;10.50;;;;;;;0.49;86.85;99421.98;221758;1273;25376;-73
2023/02/20 00:58:53;;;;;;;16.90;9.10;;;;;;;0.50;87.11;99423.11;221845;1276;22553;-73
2023/02/20 01:03:56;;;;;;;20.60;12.00;;;;;;;0.50;86.59;99425.00;221730;1275;23761;-73
2023/02/20 01:08:58;;;;;;;20.70;11.60;;;;;;;0.52;86.54;99430.27;221842;1276;22751;-74
2023/02/20 01:14:00;;;;;;;18.50;10.30;;;;;;;0.53;86.99;99431.73;221761;1276;22527;-73
2023/02/20 01:19:04;;;;;;;18.30;11.00;;;;;;;0.53;86.97;99425.66;221760;1274;24754;-73
2023/02/20 01:24:09;;;;;;;18.80;10.50;;;;;;;0.54;86.75;99411.02;221594;1276;22637;-74
2023/02/20 01:29:12;;;;;;;14.70;8.40;;;;;;;0.55;87.00;99406.63;221550;1276;26527;-73
2023/02/20 01:34:18;;;;;;;14.80;8.00;;;;;;;0.56;86.69;99402.40;221760;1276;24338;-73
2023/02/20 01:39:25;;;;;;;17.10;7.60;;;;;;;0.56;86.74;99393.76;221862;1274;23789;-73
2023/02/20 01:44:32;;;;;;;13.80;7.20;;;;;;;0.56;86.71;99389.41;221565;1276;25531;-72
2023/02/20 01:49:55;;;;;;;16.10;8.70;;;;;;;0.58;86.90;99387.73;221688;1276;24207;-73
2023/02/20 01:55:04;;;;;;;13.20;6.70;;;;;;;0.59;86.74;99380.65;221743;1263;22549;-73
2023/02/20 02:00:13;;;;;;;13.10;6.80;;;;;;;0.60;86.33;99366.27;221780;1275;24152;-73
2023/02/20 02:05:20;;;;;;;15.00;8.00;;;;;;;0.60;86.51;99353.19;221817;1275;25655;-73
2023/02/20 02:10:34;;;;;;;17.10;9.40;;;;;;;0.63;86.60;99338.13;221777;1274;22581;-74
2023/02/20 02:15:36;;;;;;;14.50;8.80;;;;;;;0.65;86.74;99333.27;221776;1274;22548;-73
2023/02/20 02:21:03;;;;;;;15.70;7.90;;;;;;;0.68;86.65;99329.92;221838;1275;25503;-74
2023/02/20 02:26:18;;;;;;;12.90;6.80;;;;;;;0.69;86.46;99323.13;221783;1276;22645;-73
2023/02/20 02:31:27;;;;;;;9.00;5.40;;;;;;;0.68;86.12;99322.63;221747;1273;22527;-75
2023/02/20 02:37:02;;;;;;;13.00;5.80;;;;;;;0.68;86.46;99321.41;221849;1276;22577;-73
2023/02/20 02:42:22;;;;;;;12.90;5.80;;;;;;;0.68;86.16;99308.75;221892;1276;23005;-73
2023/02/20 02:47:43;;;;;;;11.50;5.20;;;;;;;0.69;86.11;99308.69;221826;1276;25489;-73
2023/02/20 02:52:48;;;;;;;8.10;4.20;;;;;;;0.70;86.08;99302.90;221855;1276;22534;-73
2023/02/20 02:57:54;;;;;;;9.50;3.90;;;;;;;0.69;85.74;99296.91;221673;1276;22589;-73
2023/02/20 03:03:09;;;;;;;7.50;4.00;;;;;;;0.68;85.55;99306.33;221910;1270;25454;-73
2023/02/20 03:08:36;;;;;;;10.00;3.20;;;;;;;0.70;85.70;99306.06;221844;1276;22536;-74
2023/02/20 03:19:12;;;;;;;6.90;3.10;;;;;;;0.74;85.54;99297.64;221829;1273;23957;-74
2023/02/20 03:24:18;;;;;;;6.30;2.80;;;;;;;0.75;85.74;99285.91;221900;1276;22531;-75
2023/02/20 03:29:35;;;;;;;5.30;3.30;;;;;;;0.75;85.51;99277.58;221661;1276;22535;-74
2023/02/20 03:45:36;;;;;;;8.60;4.00;;;;;;;0.68;85.38;99268.91;221810;1275;25383;-74
2023/02/20 03:50:40;;;;;;;8.30;4.10;;;;;;;0.65;85.10;99271.02;221813;1276;25347;-73
2023/02/20 03:55:45;;;;;;;7.00;4.30;;;;;;;0.63;85.65;99288.17;221580;1276;24410;-74
2023/02/20 04:00:54;;;;;;;12.80;5.50;;;;;;;0.60;85.63;99297.95;221726;1276;25439;-74
2023/02/20 04:06:01;;;;;;;7.80;3.70;;;;;;;0.56;85.86;99296.89;221809;1270;22613;-75
2023/02/20 04:11:17;;;;;;;7.60;2.70;;;;;;;0.43;85.45;99271.47;221802;1273;22535;-73
2023/02/20 04:16:21;;;;;;;7.80;3.30;;;;;;;0.29;85.01;99262.25;221698;1264;25457;-75
2023/02/20 04:21:34;;;;;;;7.10;4.00;;;;;;;0.15;84.95;99252.20;221786;1276;22526;-73
2023/02/20 04:26:38;;;;;;;7.00;3.90;;;;;;;0.00;85.37;99261.59;221667;1276;22540;-73
2023/02/20 04:31:41;;;;;;;8.70;4.20;;;;;;;-0.12;84.96;99270.42;221785;1276;22703;-74
2023/02/20 04:36:47;;;;;;;9.00;4.70;;;;;;;-0.20;85.19;99262.50;221768;1274;23146;-73
2023/02/20 04:41:50;;;;;;;11.10;5.60;;;;;;;-0.20;85.54;99254.07;221763;1274;24326;-73
2023/02/20 04:46:56;;;;;;;9.50;4.90;;;;;;;-0.20;85.40;99242.93;221698;1276;22539;-74
2023/02/20 04:52:01;;;;;;;10.70;5.40;;;;;;;-0.17;85.72;99230.30;221789;1276;26293;-75
2023/02/20 04:57:07;;;;;;;13.30;7.20;;;;;;;-0.13;85.35;99228.42;221686;1276;22662;-73
2023/02/20 05:02:10;;;;;;;11.00;7.60;;;;;;;-0.07;85.48;99232.32;221755;1276;25480;-73
2023/02/20 05:07:12;;;;;;;11.00;6.60;;;;;;;-0.02;85.61;99220.17;221757;1270;25363;-73
2023/02/20 05:12:14;;;;;;;14.20;8.00;;;;;;;0.02;85.53;99207.77;221746;1276;23025;-73
2023/02/20 05:17:17;;;;;;;14.40;7.80;;;;;;;0.05;85.21;99195.60;221766;1276;22537;-74
2023/02/20 05:22:21;;;;;;;12.90;9.00;;;;;;;0.06;85.03;99193.65;221969;1276;22557;-74
2023/02/20 05:27:24;;;;;;;19.40;10.00;;;;;;;0.04;85.25;99210.22;221786;1273;24341;-74
2023/02/20 05:32:29;;;;;;;12.60;7.30;;;;;;;0.03;85.06;99221.42;221755;1274;24256;-75
2023/02/20 05:37:31;;;;;;;12.50;6.50;;;;;;;0.01;84.95;99224.81;221698;1257;22526;-74
2023/02/20 05:42:35;;;;;;;12.50;7.50;;;;;;;-0.03;84.68;99225.95;221715;1275;23518;-74
2023/02/20 05:47:38;;;;;;;15.80;8.70;;;;;;;-0.09;84.77;99205.60;221696;1276;25365;-73
2023/02/20 05:52:41;;;;;;;14.10;9.20;;;;;;;-0.17;84.77;99204.51;221752;1276;25889;-73
2023/02/20 05:57:44;;;;;;;17.40;10.00;;;;;;;-0.24;85.19;99208.81;221856;1276;22669;-74
2023/02/20 06:02:46;;;;;;;18.30;9.20;;;;;;;-0.29;85.38;99207.23;221640;1276;22638;-73
2023/02/20 06:07:49;;;;;;;17.70;11.50;;;;;;;-0.28;85.72;99211.01;221882;1267;25491;-72
2023/02/20 06:12:51;;;;;;;15.80;9.80;;;;;;;-0.23;85.85;99216.38;221619;1276;22533;-73
2023/02/20 06:17:54;;;;;;;15.60;9.50;;;;;;;-0.15;85.97;99210.39;221496;1276;24375;-72
2023/02/20 06:22:56;;;;;;;17.60;10.60;;;;;;;-0.05;86.05;99201.16;221842;1273;23004;-73
2023/02/20 06:27:58;;;;;;;14.40;9.50;;;;;;;0.07;86.01;99207.78;221817;1254;24108;-76
2023/02/20 06:33:01;;;;;;;19.00;11.60;;;;;;;0.17;86.01;99214.46;221907;1261;24225;-75
2023/02/20 06:38:03;;;;;;;14.50;9.90;;;;;;;0.26;85.74;99217.10;221853;1273;22630;-72
2023/02/20 06:43:06;;;;;;;18.70;10.70;;;;;;;0.36;85.93;99230.40;222020;1276;22575;-75
2023/02/20 06:48:08;;;;;;;16.30;9.60;;;;;;;0.46;86.16;99224.15;222387;1261;22603;-74
2023/02/20 06:53:11;;;;;;;14.80;9.40;;;;;;;0.57;85.63;99212.52;222339;1268;22527;-74
2023/02/20 06:58:13;;;;;;;13.20;8.40;;;;;;;0.72;85.58;99216.45;222113;1275;22563;-74
2023/02/20 07:03:15;;;;;;;13.90;8.00;;;;;;;0.90;85.53;99215.37;222310;1256;22647;-73
2023/02/20 07:08:18;;;;;;;13.70;7.60;;;;;;;1.09;85.14;99213.92;222416;1257;138242;-72
2023/02/20 07:13:21;;;;;;;10.80;6.20;;;;;;;1.31;85.41;99212.42;221953;1267;22693;-72
2023/02/20 07:18:26;;;;;;;12.50;7.00;;;;;;;1.52;85.08;99206.77;222082;1264;139239;-72
2023/02/20 07:23:28;;;;;;;9.40;5.70;;;;;;;1.73;85.27;99197.64;222049;1272;138899;-72
2023/02/20 07:28:34;;;;;;;8.70;5.60;;;;;;;1.94;85.03;99196.47;222115;1263;138138;-74
2023/02/20 07:33:41;;;;;;;9.60;5.70;;;;;;;2.11;84.97;99194.89;222131;1273;138287;-74
2023/02/20 07:38:55;;;;;;;8.50;4.90;;;;;;;2.27;84.66;99189.77;221875;1257;138144;-73
2023/02/20 07:43:58;;;;;;;10.00;6.10;;;;;;;2.39;84.27;99181.14;221820;1276;22543;-72
2023/02/20 07:49:05;;;;;;;10.00;5.60;;;;;;;2.45;83.63;99174.36;221945;1264;138588;-72
2023/02/20 07:54:13;;;;;;;9.50;6.30;;;;;;;2.51;83.54;99160.70;221886;1264;138383;-72
2023/02/20 07:59:19;;;;;;;11.60;6.20;;;;;;;2.57;83.33;99149.08;221703;1271;138375;-73
2023/02/20 08:04:22;;;;;;;8.90;5.50;;;;;;;2.65;82.94;99139.30;221610;1271;138277;-73
2023/02/20 08:09:27;;;;;;;10.30;6.00;;;;;;;2.72;82.98;99135.77;221886;1272;138056;-77
2023/02/20 08:14:34;;;;;;;8.90;5.70;;;;;;;2.80;82.80;99137.02;221683;1264;138393;-72
2023/02/20 08:19:37;;;;;;;13.20;6.30;;;;;;;2.88;82.80;99128.13;222075;1263;24224;-75
2023/02/20 08:24:41;;;;;;;11.60;7.40;;;;;;;2.99;82.87;99131.52;222333;1256;138009;-73
2023/02/20 08:29:45;;;;;;;12.00;7.60;;;;;;;3.10;82.41;99128.71;221787;1258;138930;-74
2023/02/20 08:35:13;;;;;;;13.50;9.00;;;;;;;3.19;82.37;99127.17;221751;1271;138356;-73
2023/02/20 08:40:21;;;;;;;14.00;9.50;;;;;;;3.38;82.65;99106.01;221859;1260;138382;-74
2023/02/20 08:45:24;;;;;;;14.30;8.30;;;;;;;3.60;82.43;99108.80;221983;1263;138358;-75
2023/02/20 08:50:27;;;;;;;14.80;8.30;;;;;;;3.71;81.85;99103.11;222140;1271;138412;-75
2023/02/20 08:55:32;;;;;;;13.90;7.40;;;;;;;3.75;81.35;99092.80;221935;1256;24301;-75
2023/02/20 09:00:34;;;;;;;13.80;8.00;;;;;;;3.83;81.47;99080.92;222339;1267;138056;-74
2023/02/20 09:05:37;;;;;;;12.30;7.30;;;;;;;4.08;81.80;99061.48;221882;1271;138170;-74
2023/02/20 09:10:43;;;;;;;11.50;7.70;;;;;;;4.38;81.72;99052.55;222045;1255;138342;-75
2023/02/20 09:15:45;;;;;;;11.90;7.70;;;;;;;4.58;81.11;99049.46;222605;1271;138295;-74
2023/02/20 09:20:49;;;;;;;13.20;7.50;;;;;;;4.60;80.88;99042.39;222166;1255;138415;-75
2023/02/20 09:25:54;;;;;;;13.60;7.10;;;;;;;4.61;80.88;99037.96;222490;1273;22941;-74
2023/02/20 09:30:59;;;;;;;9.70;6.70;;;;;;;4.59;80.54;99030.64;221936;1267;137953;-73
2023/02/20 09:36:01;;;;;;;9.70;6.50;;;;;;;4.56;80.52;99024.33;222134;1267;138236;-74
2023/02/20 09:41:04;;;;;;;8.80;6.60;;;;;;;4.55;80.38;99016.40;222186;1260;138171;-72
2023/02/20 09:46:18;;;;;;;9.70;5.60;;;;;;;4.54;80.47;99014.39;221784;1272;138167;-73
2023/02/20 09:51:26;;;;;;;8.90;6.30;;;;;;;4.57;80.33;99005.77;222428;1268;138266;-74
2023/02/20 09:56:34;;;;;;;8.90;5.50;;;;;;;4.62;80.56;98996.00;222004;1272;138252;-72
2023/02/20 10:01:42;;;;;;;9.10;6.10;;;;;;;4.76;80.48;98990.34;222371;1259;22705;-73
2023/02/20 10:06:49;;;;;;;7.00;5.80;;;;;;;4.90;80.90;98991.77;222231;1271;137876;-73
2023/02/20 10:12:19;;;;;;;8.60;5.90;;;;;;;5.03;80.76;98992.86;221823;1271;138271;-75
2023/02/20 10:17:30;;;;;;;;;;;;;;;5.10;80.55;98974.64;222210;1271;138127;-74
2023/02/20 10:23:32;;;;;;;8.40;5.20;;;;;;;5.24;80.65;98953.07;222110;1268;124542;-74
2023/02/20 10:28:38;;;;;;;7.40;4.80;;;;;;;5.41;80.16;98929.52;221701;1271;138140;-76
2023/02/20 10:33:49;;;;;;;7.10;4.70;;;;;;;5.50;79.86;98928.14;221638;1271;138781;-75
2023/02/20 10:39:09;;;;;;;6.20;4.50;;;;;;;5.56;79.43;98917.90;221904;1268;138107;-75
2023/02/20 10:44:24;;;;;;;6.80;4.90;;;;;;;5.60;79.68;98919.74;222245;1271;138179;-75
2023/02/20 10:49:41;;;;;;;6.50;4.90;;;;;;;5.66;79.47;98903.98;222090;1271;22944;-74
2023/02/20 10:54:49;;;;;;;9.40;5.80;;;;;;;5.74;79.23;98885.03;222184;1276;137915;-74
2023/02/20 11:00:03;;;;;;;8.00;5.50;;;;;;;5.88;79.78;98877.57;222106;1271;138011;-73
2023/02/20 11:05:17;;;;;;;7.30;6.10;;;;;;;6.02;79.18;98858.94;222160;1276;138249;-74
2023/02/20 11:10:29;;;;;;;8.80;6.00;;;;;;;6.18;79.26;98849.23;222387;1265;138131;-74
2023/02/20 11:15:33;;;;;;;8.50;5.80;;;;;;;6.29;78.91;98841.36;221932;1262;178494;-75
2023/02/20 11:20:41;;;;;;;8.40;6.20;;;;;;;6.36;78.70;98826.38;222217;1271;138678;-74
2023/02/20 11:25:48;;;;;;;8.10;6.60;;;;;;;6.36;78.93;98815.29;222658;1271;23943;-73
2023/02/20 11:31:05;;;;;;;9.10;6.70;;;;;;;6.39;78.66;98802.63;221951;1267;137899;-74
2023/02/20 11:36:15;;;;;;;9.40;6.60;;;;;;;6.45;79.01;98772.55;222582;1271;138420;-75
2023/02/20 11:41:35;;;;;;;10.70;7.70;;;;;;;6.56;78.97;98757.94;222031;1268;138789;-74
2023/02/20 11:46:38;;;;;;;11.30;7.90;;;;;;;6.57;79.06;98751.30;222090;1271;138894;-74
2023/02/20 11:51:47;;;;;;;11.90;8.90;;;;;;;6.57;79.54;98734.48;222298;1261;138265;-74
2023/02/20 11:57:01;;;;;;;10.30;8.70;;;;;;;6.67;79.58;98719.45;222233;1273;138307;-74
2023/02/20 12:02:23;;;;;;;11.50;8.80;;;;;;;6.78;79.63;98707.17;222366;1260;23791;-73
2023/02/20 12:07:34;;;;;;;9.90;7.90;;;;;;;6.88;79.68;98685.16;222055;1274;24257;-75
2023/02/20 12:12:37;;;;;;;12.10;8.40;;;;;;;6.95;79.89;98665.27;222080;1270;137731;-73
2023/02/20 12:18:33;;;;;;;13.70;9.80;;;;;;;7.13;79.78;98661.70;221999;1270;138306;-73
2023/02/20 12:23:50;;;;;;;10.70;8.40;;;;;;;7.44;79.87;98659.12;222233;1271;138056;-73
2023/02/20 12:29:12;;;;;;;12.80;8.80;;;;;;;7.71;79.87;98633.78;222261;1267;138502;-72
2023/02/20 12:35:09;;;;;;;10.90;8.40;;;;;;;7.93;79.00;98626.02;221984;1270;138746;-72
2023/02/20 12:40:51;;;;;;;7.00;5.60;;;;;;;8.14;78.74;98622.89;221810;1276;138559;-73
2023/02/20 12:46:22;;;;;;;8.00;6.00;;;;;;;8.29;77.71;98617.09;221985;1271;138189;-72
2023/02/20 12:51:49;;;;;;;7.40;6.10;;;;;;;8.42;77.79;98605.58;222266;1270;138188;-74
2023/02/20 12:57:28;;;;;;;6.30;4.70;;;;;;;8.55;76.18;98593.46;222126;1271;138704;-72
2023/02/20 13:02:45;;;;;;;6.30;5.60;;;;;;;8.58;76.23;98597.69;222100;1254;25140;-76
2023/02/20 13:08:00;;;;;;;6.00;5.20;;;;;;;8.60;75.72;98594.27;222265;1271;138485;-73
2023/02/20 13:13:09;;;;;;;5.90;5.30;;;;;;;8.60;75.45;98583.14;222335;1268;138547;-75
2023/02/20 13:18:26;;;;;;;6.40;4.90;;;;;;;8.62;75.30;98578.61;222209;1268;138266;-75
2023/02/20 13:23:35;;;;;;;5.00;4.40;;;;;;;8.65;75.27;98553.91;222116;1274;138368;-73
2023/02/20 13:28:47;;;;;;;5.10;4.60;;;;;;;8.67;75.16;98556.73;222071;1271;138770;-75
2023/02/20 13:34:12;;;;;;;5.90;5.00;;;;;;;8.66;75.21;98530.99;222217;1271;138564;-73
2023/02/20 13:39:24;;;;;;;6.30;5.30;;;;;;;8.67;75.53;98529.46;222219;1271;139254;-76
2023/02/20 13:44:36;;;;;;;7.00;4.90;;;;;;;8.73;75.68;98517.23;222301;1270;24235;-73
2023/02/20 13:50:24;;;;;;;6.00;4.70;;;;;;;8.74;75.34;98491.58;222172;1270;138272;-74
2023/02/20 13:55:28;;;;;;;6.50;4.50;;;;;;;8.72;75.41;98464.06;221884;1270;138586;-74
2023/02/20 14:00:50;;;;;;;5.80;4.10;;;;;;;8.70;75.19;98444.43;222033;1266;138455;-73
2023/02/20 14:06:05;;;;;;;5.50;4.50;;;;;;;8.72;75.36;98421.27;222138;1270;138366;-72
2023/02/20 14:11:14;;;;;;;6.10;4.50;;;;;;;8.74;75.05;98415.59;222010;1272;139184;-73
2023/02/20 14:16:30;;;;;;;6.00;4.90;;;;;;;8.76;75.42;98379.09;221995;1262;138688;-73
2023/02/20 14:21:35;;;;;;;5.70;4.10;;;;;;;8.81;75.16;98364.71;222303;1271;138278;-72
2023/02/20 14:26:43;;;;;;;5.70;4.00;;;;;;;8.83;75.23;98374.36;222040;1269;25380;-73
2023/02/20 14:31:50;;;;;;;5.50;4.10;;;;;;;8.83;74.89;98377.55;222141;1270;137907;-73
2023/02/20 14:37:16;;;;;;;6.20;3.80;;;;;;;8.82;74.89;98363.08;221939;1270;138439;-73
2023/02/20 14:42:22;;;;;;;6.30;4.50;;;;;;;8.86;74.44;98355.95;221952;1271;138431;-75
2023/02/20 14:47:29;;;;;;;5.50;3.90;;;;;;;8.93;74.64;98358.88;222035;1271;138235;-73
2023/02/20 14:52:31;;;;;;;4.30;3.60;;;;;;;8.97;74.72;98352.31;222093;1270;138413;-73
2023/02/20 14:57:35;;;;;;;4.80;3.50;;;;;;;9.00;74.36;98353.89;221849;1270;138709;-74
2023/02/20 15:02:42;;;;;;;4.20;3.10;;;;;;;8.99;74.77;98346.10;222064;1272;23279;-74
2023/02/20 15:07:45;;;;;;;4.90;2.70;;;;;;;8.97;73.83;98336.88;221669;1278;24154;-73
2023/02/20 15:12:57;;;;;;;4.20;3.10;;;;;;;8.95;73.80;98322.55;221729;1271;22554;-76
2023/02/20 15:18:16;;;;;;;5.70;3.80;;;;;;;8.94;74.11;98331.81;221743;1271;25355;-74
2023/02/20 15:23:35;;;;;;;4.40;3.40;;;;;;;8.95;74.01;98330.32;221663;1277;25449;-74
2023/02/20 15:28:38;;;;;;;4.10;3.10;;;;;;;8.95;73.94;98324.61;221677;1278;22537;-75
2023/02/20 15:33:47;;;;;;;4.30;2.90;;;;;;;8.96;73.90;98325.06;221720;1274;22621;-74
2023/02/20 15:38:57;;;;;;;5.60;3.10;;;;;;;8.95;73.29;98327.80;221627;1278;23347;-73
2023/02/20 15:44:02;;;;;;;5.10;2.90;;;;;;;8.94;73.58;98330.55;221543;1274;22532;-74
2023/02/20 15:49:08;;;;;;;4.40;3.60;;;;;;;8.93;73.38;98337.75;221489;1276;23280;-74
2023/02/20 15:54:20;;;;;;;4.60;3.40;;;;;;;8.92;73.79;98331.67;221680;1278;22531;-74
2023/02/20 15:59:23;;;;;;;5.40;3.10;;;;;;;8.92;73.71;98337.83;221697;1271;22717;-74
2023/02/20 16:04:26;;;;;;;4.80;3.50;;;;;;;8.92;73.41;98329.31;221468;1274;22651;-75
2023/02/20 16:09:29;;;;;;;4.40;3.30;;;;;;;8.92;73.53;98326.11;221672;1278;22549;-74
2023/02/20 16:14:36;;;;;;;5.70;3.40;;;;;;;8.92;73.91;98324.65;221605;1274;22544;-73
2023/02/20 16:19:41;;;;;;;4.60;3.10;;;;;;;8.92;74.02;98335.79;221559;1275;22576;-76
2023/02/20 16:24:53;;;;;;;7.00;3.60;;;;;;;8.93;74.04;98343.42;221531;1272;25304;-75
2023/02/20 16:29:58;;;;;;;3.90;3.00;;;;;;;8.96;73.78;98354.94;221283;1277;22715;-73
2023/02/20 16:35:01;;;;;;;5.40;3.30;;;;;;;8.99;73.83;98362.92;221502;1274;22533;-75
2023/02/20 16:40:04;;;;;;;5.80;4.00;;;;;;;9.01;73.86;98372.72;221503;1277;23794;-74
2023/02/20 16:45:16;;;;;;;6.60;4.20;;;;;;;9.04;74.00;98374.65;221509;1277;22670;-74
2023/02/20 16:50:22;;;;;;;8.10;4.60;;;;;;;9.06;73.65;98376.02;221516;1274;23518;-74
2023/02/20 16:55:35;;;;;;;6.50;4.60;;;;;;;9.07;73.38;98377.13;221596;1274;22694;-74
2023/02/20 17:00:39;;;;;;;7.10;4.10;;;;;;;9.07;73.69;98371.77;221351;1277;22555;-73
2023/02/20 17:05:58;;;;;;;7.40;4.10;;;;;;;9.11;73.15;98375.48;221595;1271;22588;-74
2023/02/20 17:11:01;;;;;;;7.20;4.70;;;;;;;9.13;73.32;98375.29;221699;1274;22552;-75
2023/02/20 17:16:03;;;;;;;5.60;3.70;;;;;;;9.14;72.77;98376.36;221627;1274;22756;-73
2023/02/20 17:21:08;;;;;;;5.90;3.60;;;;;;;9.15;72.96;98380.67;221557;1274;22788;-74
2023/02/20 17:26:10;;;;;;;7.60;4.10;;;;;;;9.17;72.60;98380.05;221497;1276;25351;-73
2023/02/20 17:31:15;;;;;;;4.20;3.20;;;;;;;9.19;72.73;98378.35;221485;1278;24194;-72
2023/02/20 17:36:18;;;;;;;5.40;3.40;;;;;;;9.22;72.62;98383.88;221751;1271;25397;-74
2023/02/20 17:41:21;;;;;;;6.30;3.60;;;;;;;9.22;72.32;98388.09;221517;1275;22850;-74
2023/02/20 17:46:24;;;;;;;5.40;3.20;;;;;;;9.24;72.38;98397.12;221480;1274;22952;-73
2023/02/20 17:51:26;;;;;;;6.10;3.80;;;;;;;9.24;72.22;98394.33;221725;1273;25250;-75
2023/02/20 17:56:28;;;;;;;6.60;4.00;;;;;;;9.24;72.44;98397.85;221577;1276;22544;-74
2023/02/20 18:01:30;;;;;;;7.70;3.80;;;;;;;9.24;72.51;98390.80;221542;1277;24272;-73
2023/02/20 18:06:35;;;;;;;8.00;3.70;;;;;;;9.24;72.55;98397.36;221688;1278;22626;-76
2023/02/20 18:11:38;;;;;;;7.50;4.00;;;;;;;9.24;71.90;98394.48;221617;1274;22572;-73
2023/02/20 18:16:40;;;;;;;7.40;3.90;;;;;;;9.24;72.51;98391.84;221613;1274;22700;-74
2023/02/20 18:21:48;;;;;;;6.60;4.00;;;;;;;9.25;72.57;98403.17;221553;1277;22547;-74
2023/02/20 18:26:51;;;;;;;5.80;4.10;;;;;;;9.25;72.43;98400.18;221757;1275;24161;-74
2023/02/20 18:31:57;;;;;;;7.20;3.40;;;;;;;9.24;71.98;98399.39;221698;1275;22530;-74
2023/02/20 18:37:00;;;;;;;6.70;4.60;;;;;;;9.24;72.39;98397.45;221514;1273;22548;-73
2023/02/20 18:42:03;;;;;;;9.70;4.70;;;;;;;9.23;72.12;98392.48;221347;1277;24234;-74
2023/02/20 18:47:08;;;;;;;9.40;4.10;;;;;;;9.21;72.43;98392.87;221553;1278;22614;-74
2023/02/20 18:52:10;;;;;;;6.00;3.30;;;;;;;9.19;72.38;98388.41;221632;1278;24407;-75
2023/02/20 18:57:13;;;;;;;7.90;4.10;;;;;;;9.19;72.19;98381.72;221666;1275;22544;-74
2023/02/20 19:02:15;;;;;;;4.50;3.40;;;;;;;9.19;71.98;98379.54;221554;1271;24899;-75
2023/02/20 19:07:18;;;;;;;5.30;3.50;;;;;;;9.19;72.10;98382.09;221502;1275;22615;-74
2023/02/20 19:12:20;;;;;;;5.10;3.60;;;;;;;9.19;72.71;98379.77;221578;1278;24288;-74
2023/02/20 19:17:22;;;;;;;5.90;3.90;;;;;;;9.18;72.59;98391.86;221494;1275;26520;-75
2023/02/20 19:22:25;;;;;;;5.30;3.50;;;;;;;9.18;72.73;98387.52;221441;1275;22656;-73
2023/02/20 19:27:27;;;;;;;8.30;3.70;;;;;;;9.16;72.95;98385.96;221349;1275;22536;-74
2023/02/20 19:32:29;;;;;;;4.00;3.10;;;;;;;9.16;73.16;98385.67;221467;1254;25446;-75
2023/02/20 19:37:32;;;;;;;5.90;3.10;;;;;;;9.15;73.17;98379.91;221622;1275;22553;-74
2023/02/20 19:42:35;;;;;;;6.00;3.20;;;;;;;9.14;73.53;98384.80;221781;1278;25428;-74
2023/02/20 19:47:37;;;;;;;5.70;3.40;;;;;;;9.13;73.58;98380.04;221509;1278;24232;-74
2023/02/20 19:52:41;;;;;;;4.90;3.20;;;;;;;9.13;73.47;98384.33;222337;1275;24231;-73
2023/02/20 19:57:43;;;;;;;5.60;3.60;;;;;;;9.11;73.81;98381.48;221593;1274;24489;-74
2023/02/20 20:02:53;;;;;;;7.50;3.60;;;;;;;9.09;73.48;98373.02;221641;1277;22636;-73
2023/02/20 20:07:55;;;;;;;7.90;3.50;;;;;;;9.07;73.54;98367.80;221567;1277;25911;-74
2023/02/20 20:12:58;;;;;;;8.00;4.20;;;;;;;9.04;73.82;98364.64;221558;1277;22554;-74
2023/02/20 20:18:01;;;;;;;6.10;3.70;;;;;;;9.03;73.89;98367.09;221414;1278;22549;-75
2023/02/20 20:23:04;;;;;;;4.80;3.10;;;;;;;9.03;73.98;98363.69;221503;1278;22536;-75
2023/02/20 20:28:08;;;;;;;5.10;3.20;;;;;;;9.02;74.26;98360.55;221490;1275;22491;-75
2023/02/20 20:33:10;;;;;;;5.30;3.10;;;;;;;9.04;74.22;98357.48;221522;1278;22587;-73
2023/02/20 20:38:15;;;;;;;5.40;3.50;;;;;;;9.10;74.33;98343.14;221342;1278;22512;-74
2023/02/20 20:43:17;;;;;;;3.80;2.60;;;;;;;9.14;74.06;98332.29;221564;1275;22563;-74
2023/02/20 20:48:19;;;;;;;6.80;3.30;;;;;;;9.19;73.99;98328.15;221530;1275;22533;-73
2023/02/20 20:53:21;;;;;;;4.80;2.70;;;;;;;9.23;74.31;98323.70;221649;1274;22541;-74
2023/02/20 20:58:23;;;;;;;7.30;2.90;;;;;;;9.25;73.90;98317.31;221492;1277;22535;-73
2023/02/20 21:03:26;;;;;;;5.90;2.70;;;;;;;9.25;73.55;98312.66;221592;1274;22539;-75
2023/02/20 21:08:32;;;;;;;5.90;3.40;;;;;;;9.30;74.17;98316.61;221494;1277;22669;-74
2023/02/20 21:13:34;;;;;;;5.70;2.80;;;;;;;9.35;73.76;98315.21;221986;1276;22614;-74
2023/02/20 21:18:36;;;;;;;4.40;2.70;;;;;;;9.35;73.57;98316.19;221581;1275;22536;-74
2023/02/20 21:23:43;;;;;;;4.20;2.60;;;;;;;9.25;73.86;98315.50;221599;1269;22561;-74
2023/02/20 21:28:46;;;;;;;5.30;3.00;;;;;;;9.14;74.10;98315.78;221566;1275;22651;-74
2023/02/20 21:33:50;;;;;;;4.20;3.00;;;;;;;9.05;74.05;98309.58;222293;1273;22745;-74
2023/02/20 21:38:53;;;;;;;4.80;3.00;;;;;;;9.01;74.35;98308.49;221738;1275;22559;-74
2023/02/20 21:49:16;;;;;;;5.50;3.00;;;;;;;8.97;74.47;98298.89;221490;1278;25325;-74
2023/02/20 21:54:23;;;;;;;4.60;3.40;;;;;;;8.99;74.39;98292.39;221620;1278;24257;-74
